Terminal Aerodrome Forecast
Issued by NWS Tulsa, OK

Home | Current Version | Previous Version | Text Only | Print | Product List | Glossary On
Versions: 1 2 3 4 5 6 7 8 9 10 11 12 13 14 15 16 17 18 19 20 21 22 23 24 25 26 27 28 29 30 31 32 33 34
756
FTUS44 KTSA 230520
TAFTUL
TAF
KTUL 230520Z 2306/2406 33005KT P6SM VCTS BKN050CB
      TEMPO 2306/2307 3SM -TSRA BKN025CB
     FM230800 36007KT P6SM BKN050
      TEMPO 2310/2313 4SM BR
     FM231300 06007KT P6SM SKC=

USA.gov is the U.S. government's official web portal to all federal, state and local government web resources and services.